sensor_id;sensor_type;location;lat;lon;timestamp;P1;durP1;ratioP1;P2;durP2;ratioP2
52248;SDS011;38541;48.130;8.378;2022-08-19T00:01:41;11.35;;;10.25;;
52248;SDS011;38541;48.130;8.378;2022-08-19T00:04:11;11.43;;;10.32;;
52248;SDS011;38541;48.130;8.378;2022-08-19T00:06:40;11.88;;;10.68;;
52248;SDS011;38541;48.130;8.378;2022-08-19T00:09:08;11.30;;;10.10;;
52248;SDS011;38541;48.130;8.378;2022-08-19T00:11:37;10.80;;;9.75;;
52248;SDS011;38541;48.130;8.378;2022-08-19T00:14:04;10.30;;;9.30;;
52248;SDS011;38541;48.130;8.378;2022-08-19T00:16:35;11.35;;;10.23;;
52248;SDS011;38541;48.130;8.378;2022-08-19T00:19:02;11.25;;;10.00;;
52248;SDS011;38541;48.130;8.378;2022-08-19T00:21:29;11.13;;;10.02;;
52248;SDS011;38541;48.130;8.378;2022-08-19T00:23:56;10.70;;;9.55;;
52248;SDS011;38541;48.130;8.378;2022-08-19T00:26:25;10.75;;;9.68;;
52248;SDS011;38541;48.130;8.378;2022-08-19T00:28:53;11.07;;;9.75;;
52248;SDS011;38541;48.130;8.378;2022-08-19T00:31:20;11.73;;;10.55;;
52248;SDS011;38541;48.130;8.378;2022-08-19T00:33:47;10.65;;;9.48;;
52248;SDS011;38541;48.130;8.378;2022-08-19T00:36:16;10.88;;;9.88;;
52248;SDS011;38541;48.130;8.378;2022-08-19T00:38:43;11.57;;;10.45;;
52248;SDS011;38541;48.130;8.378;2022-08-19T00:41:14;12.20;;;10.98;;
52248;SDS011;38541;48.130;8.378;2022-08-19T00:43:42;11.57;;;9.63;;
52248;SDS011;38541;48.130;8.378;2022-08-19T00:46:09;11.18;;;9.98;;
52248;SDS011;38541;48.130;8.378;2022-08-19T00:48:37;10.63;;;9.60;;
52248;SDS011;38541;48.130;8.378;2022-08-19T00:53:33;10.40;;;9.40;;
52248;SDS011;38541;48.130;8.378;2022-08-19T00:56:01;11.48;;;10.27;;
52248;SDS011;38541;48.130;8.378;2022-08-19T00:58:31;10.45;;;9.38;;
52248;SDS011;38541;48.130;8.378;2022-08-19T01:01:00;11.05;;;10.00;;
52248;SDS011;38541;48.130;8.378;2022-08-19T01:03:27;10.82;;;9.73;;
52248;SDS011;38541;48.130;8.378;2022-08-19T01:06:15;11.27;;;10.13;;
52248;SDS011;38541;48.130;8.378;2022-08-19T01:08:46;11.60;;;10.40;;
52248;SDS011;38541;48.130;8.378;2022-08-19T01:11:15;14.10;;;11.07;;
52248;SDS011;38541;48.130;8.378;2022-08-19T01:13:43;10.77;;;9.75;;
52248;SDS011;38541;48.130;8.378;2022-08-19T01:16:15;11.05;;;9.57;;
52248;SDS011;38541;48.130;8.378;2022-08-19T01:18:43;12.05;;;10.77;;
52248;SDS011;38541;48.130;8.378;2022-08-19T01:21:12;11.10;;;9.95;;
52248;SDS011;38541;48.130;8.378;2022-08-19T01:23:50;11.75;;;10.52;;
52248;SDS011;38541;48.130;8.378;2022-08-19T01:26:18;12.48;;;11.13;;
52248;SDS011;38541;48.130;8.378;2022-08-19T01:28:49;10.98;;;9.80;;
52248;SDS011;38541;48.130;8.378;2022-08-19T01:31:20;11.02;;;9.93;;
52248;SDS011;38541;48.130;8.378;2022-08-19T01:33:53;11.23;;;10.10;;
52248;SDS011;38541;48.130;8.378;2022-08-19T01:36:23;10.57;;;9.48;;
52248;SDS011;38541;48.130;8.378;2022-08-19T01:38:51;10.60;;;9.55;;
52248;SDS011;38541;48.130;8.378;2022-08-19T01:41:18;12.48;;;10.23;;
52248;SDS011;38541;48.130;8.378;2022-08-19T01:43:45;15.18;;;9.75;;
52248;SDS011;38541;48.130;8.378;2022-08-19T01:46:32;12.52;;;9.75;;
52248;SDS011;38541;48.130;8.378;2022-08-19T01:48:59;13.05;;;11.00;;
52248;SDS011;38541;48.130;8.378;2022-08-19T01:51:27;12.20;;;10.80;;
52248;SDS011;38541;48.130;8.378;2022-08-19T01:54:03;11.50;;;10.32;;
52248;SDS011;38541;48.130;8.378;2022-08-19T01:56:30;12.18;;;10.88;;
52248;SDS011;38541;48.130;8.378;2022-08-19T01:58:58;12.13;;;10.93;;
52248;SDS011;38541;48.130;8.378;2022-08-19T02:01:28;13.02;;;10.65;;
52248;SDS011;38541;48.130;8.378;2022-08-19T02:03:58;11.40;;;10.30;;
52248;SDS011;38541;48.130;8.378;2022-08-19T02:06:27;10.95;;;9.90;;
52248;SDS011;38541;48.130;8.378;2022-08-19T02:08:54;13.10;;;10.73;;
52248;SDS011;38541;48.130;8.378;2022-08-19T02:11:33;12.75;;;11.45;;
52248;SDS011;38541;48.130;8.378;2022-08-19T02:14:02;13.05;;;11.60;;
52248;SDS011;38541;48.130;8.378;2022-08-19T02:16:32;12.73;;;11.18;;
52248;SDS011;38541;48.130;8.378;2022-08-19T02:18:59;12.38;;;11.18;;
52248;SDS011;38541;48.130;8.378;2022-08-19T02:21:28;12.43;;;11.10;;
52248;SDS011;38541;48.130;8.378;2022-08-19T02:23:56;12.45;;;11.13;;
52248;SDS011;38541;48.130;8.378;2022-08-19T02:26:23;14.65;;;11.48;;
52248;SDS011;38541;48.130;8.378;2022-08-19T02:28:51;12.38;;;10.57;;
52248;SDS011;38541;48.130;8.378;2022-08-19T02:31:20;11.48;;;10.38;;
52248;SDS011;38541;48.130;8.378;2022-08-19T02:33:51;12.27;;;10.75;;
52248;SDS011;38541;48.130;8.378;2022-08-19T02:36:22;12.70;;;11.40;;
52248;SDS011;38541;48.130;8.378;2022-08-19T02:38:50;11.85;;;10.63;;
52248;SDS011;38541;48.130;8.378;2022-08-19T02:41:24;11.95;;;10.63;;
52248;SDS011;38541;48.130;8.378;2022-08-19T02:43:54;12.57;;;11.27;;
52248;SDS011;38541;48.130;8.378;2022-08-19T02:46:42;12.38;;;11.07;;
52248;SDS011;38541;48.130;8.378;2022-08-19T02:49:12;12.13;;;10.93;;
52248;SDS011;38541;48.130;8.378;2022-08-19T02:51:40;12.50;;;11.20;;
52248;SDS011;38541;48.130;8.378;2022-08-19T02:54:08;12.32;;;11.13;;
52248;SDS011;38541;48.130;8.378;2022-08-19T02:56:37;12.77;;;11.43;;
52248;SDS011;38541;48.130;8.378;2022-08-19T02:59:06;12.38;;;11.13;;
52248;SDS011;38541;48.130;8.378;2022-08-19T03:01:37;12.55;;;11.02;;
52248;SDS011;38541;48.130;8.378;2022-08-19T03:07:00;12.02;;;10.65;;
52248;SDS011;38541;48.130;8.378;2022-08-19T03:12:04;11.02;;;9.98;;
52248;SDS011;38541;48.130;8.378;2022-08-19T03:14:32;12.07;;;10.80;;
52248;SDS011;38541;48.130;8.378;2022-08-19T03:16:58;14.45;;;12.13;;
52248;SDS011;38541;48.130;8.378;2022-08-19T03:19:25;11.77;;;10.57;;
52248;SDS011;38541;48.130;8.378;2022-08-19T03:21:53;12.13;;;10.93;;
52248;SDS011;38541;48.130;8.378;2022-08-19T03:24:20;11.05;;;9.77;;
52248;SDS011;38541;48.130;8.378;2022-08-19T03:26:48;12.60;;;11.30;;
52248;SDS011;38541;48.130;8.378;2022-08-19T03:29:17;13.38;;;11.48;;
52248;SDS011;38541;48.130;8.378;2022-08-19T03:31:56;12.55;;;11.25;;
52248;SDS011;38541;48.130;8.378;2022-08-19T03:34:24;11.80;;;10.60;;
52248;SDS011;38541;48.130;8.378;2022-08-19T03:36:53;12.43;;;11.20;;
52248;SDS011;38541;48.130;8.378;2022-08-19T03:39:21;12.55;;;11.25;;
52248;SDS011;38541;48.130;8.378;2022-08-19T03:41:49;13.80;;;11.43;;
52248;SDS011;38541;48.130;8.378;2022-08-19T03:44:37;14.68;;;12.02;;
52248;SDS011;38541;48.130;8.378;2022-08-19T03:47:07;12.93;;;11.55;;
52248;SDS011;38541;48.130;8.378;2022-08-19T03:49:33;12.13;;;10.88;;
52248;SDS011;38541;48.130;8.378;2022-08-19T03:52:02;12.13;;;10.82;;
52248;SDS011;38541;48.130;8.378;2022-08-19T03:54:31;12.93;;;11.23;;
52248;SDS011;38541;48.130;8.378;2022-08-19T03:56:58;14.32;;;11.82;;
52248;SDS011;38541;48.130;8.378;2022-08-19T03:59:27;12.45;;;11.18;;
52248;SDS011;38541;48.130;8.378;2022-08-19T04:01:57;12.00;;;10.80;;
52248;SDS011;38541;48.130;8.378;2022-08-19T04:04:25;11.85;;;10.55;;
52248;SDS011;38541;48.130;8.378;2022-08-19T04:06:54;13.25;;;11.88;;
52248;SDS011;38541;48.130;8.378;2022-08-19T04:09:22;12.02;;;10.68;;
52248;SDS011;38541;48.130;8.378;2022-08-19T04:11:50;12.90;;;11.60;;
52248;SDS011;38541;48.130;8.378;2022-08-19T04:14:21;12.43;;;11.05;;
52248;SDS011;38541;48.130;8.378;2022-08-19T04:16:52;13.38;;;11.73;;
52248;SDS011;38541;48.130;8.378;2022-08-19T04:19:19;12.18;;;10.98;;
52248;SDS011;38541;48.130;8.378;2022-08-19T04:21:47;13.85;;;12.20;;
52248;SDS011;38541;48.130;8.378;2022-08-19T04:24:16;13.30;;;11.77;;
52248;SDS011;38541;48.130;8.378;2022-08-19T04:26:43;13.52;;;11.98;;
52248;SDS011;38541;48.130;8.378;2022-08-19T04:29:12;12.60;;;11.30;;
52248;SDS011;38541;48.130;8.378;2022-08-19T04:31:45;14.27;;;12.15;;
52248;SDS011;38541;48.130;8.378;2022-08-19T04:34:13;13.23;;;11.82;;
52248;SDS011;38541;48.130;8.378;2022-08-19T04:36:43;14.85;;;11.57;;
52248;SDS011;38541;48.130;8.378;2022-08-19T04:39:15;13.00;;;11.48;;
52248;SDS011;38541;48.130;8.378;2022-08-19T04:41:43;15.57;;;12.75;;
52248;SDS011;38541;48.130;8.378;2022-08-19T04:47:01;13.77;;;11.75;;
52248;SDS011;38541;48.130;8.378;2022-08-19T04:54:29;15.98;;;13.13;;
52248;SDS011;38541;48.130;8.378;2022-08-19T04:57:05;17.70;;;13.43;;
52248;SDS011;38541;48.130;8.378;2022-08-19T04:59:35;16.38;;;13.13;;
52248;SDS011;38541;48.130;8.378;2022-08-19T05:02:03;15.30;;;13.57;;
52248;SDS011;38541;48.130;8.378;2022-08-19T05:04:30;13.32;;;11.73;;
52248;SDS011;38541;48.130;8.378;2022-08-19T05:06:59;15.88;;;13.30;;
52248;SDS011;38541;48.130;8.378;2022-08-19T05:09:29;17.10;;;13.50;;
52248;SDS011;38541;48.130;8.378;2022-08-19T05:12:17;15.43;;;13.25;;
52248;SDS011;38541;48.130;8.378;2022-08-19T05:14:44;15.80;;;14.10;;
52248;SDS011;38541;48.130;8.378;2022-08-19T05:17:13;18.77;;;13.63;;
52248;SDS011;38541;48.130;8.378;2022-08-19T05:20:01;18.02;;;13.23;;
52248;SDS011;38541;48.130;8.378;2022-08-19T05:22:46;14.57;;;12.52;;
52248;SDS011;38541;48.130;8.378;2022-08-19T05:25:14;17.30;;;13.60;;
52248;SDS011;38541;48.130;8.378;2022-08-19T05:27:45;14.50;;;12.40;;
52248;SDS011;38541;48.130;8.378;2022-08-19T05:30:12;15.63;;;13.27;;
52248;SDS011;38541;48.130;8.378;2022-08-19T05:32:39;15.73;;;13.30;;
52248;SDS011;38541;48.130;8.378;2022-08-19T05:35:06;14.32;;;11.95;;
52248;SDS011;38541;48.130;8.378;2022-08-19T05:37:33;16.75;;;13.95;;
52248;SDS011;38541;48.130;8.378;2022-08-19T05:40:00;13.27;;;11.77;;
52248;SDS011;38541;48.130;8.378;2022-08-19T05:42:27;15.98;;;12.50;;
52248;SDS011;38541;48.130;8.378;2022-08-19T05:44:54;16.08;;;13.73;;
52248;SDS011;38541;48.130;8.378;2022-08-19T05:47:22;15.07;;;12.23;;
52248;SDS011;38541;48.130;8.378;2022-08-19T05:49:49;16.05;;;12.93;;
52248;SDS011;38541;48.130;8.378;2022-08-19T05:52:16;13.95;;;12.25;;
52248;SDS011;38541;48.130;8.378;2022-08-19T05:54:45;17.75;;;13.18;;
52248;SDS011;38541;48.130;8.378;2022-08-19T05:57:17;15.60;;;12.57;;
52248;SDS011;38541;48.130;8.378;2022-08-19T05:59:44;14.85;;;12.45;;
52248;SDS011;38541;48.130;8.378;2022-08-19T06:02:14;14.98;;;12.25;;
52248;SDS011;38541;48.130;8.378;2022-08-19T06:04:41;15.32;;;13.30;;
52248;SDS011;38541;48.130;8.378;2022-08-19T06:07:10;18.02;;;14.40;;
52248;SDS011;38541;48.130;8.378;2022-08-19T06:09:38;18.10;;;14.77;;
52248;SDS011;38541;48.130;8.378;2022-08-19T06:12:05;16.63;;;14.77;;
52248;SDS011;38541;48.130;8.378;2022-08-19T06:14:32;18.15;;;14.85;;
52248;SDS011;38541;48.130;8.378;2022-08-19T06:17:05;15.35;;;12.95;;
52248;SDS011;38541;48.130;8.378;2022-08-19T06:19:32;17.15;;;14.57;;
52248;SDS011;38541;48.130;8.378;2022-08-19T06:22:06;18.73;;;14.13;;
52248;SDS011;38541;48.130;8.378;2022-08-19T06:24:32;19.88;;;15.35;;
52248;SDS011;38541;48.130;8.378;2022-08-19T06:27:00;17.30;;;14.93;;
52248;SDS011;38541;48.130;8.378;2022-08-19T06:29:28;17.17;;;13.93;;
52248;SDS011;38541;48.130;8.378;2022-08-19T06:31:56;16.48;;;13.98;;
52248;SDS011;38541;48.130;8.378;2022-08-19T06:34:25;17.98;;;14.52;;
52248;SDS011;38541;48.130;8.378;2022-08-19T06:36:54;18.58;;;14.85;;
52248;SDS011;38541;48.130;8.378;2022-08-19T06:39:24;18.40;;;15.13;;
52248;SDS011;38541;48.130;8.378;2022-08-19T06:41:54;22.20;;;14.95;;
52248;SDS011;38541;48.130;8.378;2022-08-19T06:44:29;20.92;;;15.50;;
52248;SDS011;38541;48.130;8.378;2022-08-19T06:47:08;17.05;;;14.18;;
52248;SDS011;38541;48.130;8.378;2022-08-19T06:49:48;21.77;;;16.63;;
52248;SDS011;38541;48.130;8.378;2022-08-19T06:52:15;18.58;;;15.27;;
52248;SDS011;38541;48.130;8.378;2022-08-19T06:54:43;18.88;;;15.57;;
52248;SDS011;38541;48.130;8.378;2022-08-19T06:57:21;27.02;;;15.50;;
52248;SDS011;38541;48.130;8.378;2022-08-19T06:59:48;22.00;;;15.80;;
52248;SDS011;38541;48.130;8.378;2022-08-19T07:02:15;20.48;;;16.95;;
52248;SDS011;38541;48.130;8.378;2022-08-19T07:04:46;22.27;;;16.08;;
52248;SDS011;38541;48.130;8.378;2022-08-19T07:07:17;20.23;;;16.70;;
52248;SDS011;38541;48.130;8.378;2022-08-19T07:09:47;24.98;;;17.55;;
52248;SDS011;38541;48.130;8.378;2022-08-19T07:12:27;19.10;;;15.70;;
52248;SDS011;38541;48.130;8.378;2022-08-19T07:14:57;20.67;;;16.90;;
52248;SDS011;38541;48.130;8.378;2022-08-19T07:17:24;20.35;;;16.50;;
52248;SDS011;38541;48.130;8.378;2022-08-19T07:19:51;19.90;;;15.77;;
52248;SDS011;38541;48.130;8.378;2022-08-19T07:22:19;20.90;;;14.93;;
52248;SDS011;38541;48.130;8.378;2022-08-19T07:24:50;21.17;;;16.80;;
52248;SDS011;38541;48.130;8.378;2022-08-19T07:27:17;20.25;;;16.00;;
52248;SDS011;38541;48.130;8.378;2022-08-19T07:29:51;20.60;;;17.65;;
52248;SDS011;38541;48.130;8.378;2022-08-19T07:32:24;23.92;;;18.42;;
52248;SDS011;38541;48.130;8.378;2022-08-19T07:34:53;19.27;;;15.43;;
52248;SDS011;38541;48.130;8.378;2022-08-19T07:37:21;21.52;;;17.20;;
52248;SDS011;38541;48.130;8.378;2022-08-19T07:39:48;18.40;;;15.35;;
52248;SDS011;38541;48.130;8.378;2022-08-19T07:42:15;16.23;;;14.48;;
52248;SDS011;38541;48.130;8.378;2022-08-19T07:44:42;19.73;;;15.82;;
52248;SDS011;38541;48.130;8.378;2022-08-19T07:47:16;20.60;;;16.52;;
52248;SDS011;38541;48.130;8.378;2022-08-19T07:50:05;17.80;;;14.75;;
52248;SDS011;38541;48.130;8.378;2022-08-19T07:52:34;18.52;;;15.35;;
52248;SDS011;38541;48.130;8.378;2022-08-19T07:55:03;20.25;;;15.95;;
52248;SDS011;38541;48.130;8.378;2022-08-19T07:57:30;21.35;;;15.60;;
52248;SDS011;38541;48.130;8.378;2022-08-19T07:59:58;17.55;;;15.15;;
52248;SDS011;38541;48.130;8.378;2022-08-19T08:02:24;17.38;;;14.68;;
52248;SDS011;38541;48.130;8.378;2022-08-19T08:04:51;17.55;;;14.88;;
52248;SDS011;38541;48.130;8.378;2022-08-19T08:07:36;18.35;;;14.75;;
52248;SDS011;38541;48.130;8.378;2022-08-19T08:10:21;22.35;;;18.50;;
52248;SDS011;38541;48.130;8.378;2022-08-19T08:12:50;19.23;;;16.77;;
52248;SDS011;38541;48.130;8.378;2022-08-19T08:15:35;18.88;;;15.70;;
52248;SDS011;38541;48.130;8.378;2022-08-19T08:18:08;18.77;;;15.77;;
52248;SDS011;38541;48.130;8.378;2022-08-19T08:20:35;19.90;;;16.02;;
52248;SDS011;38541;48.130;8.378;2022-08-19T08:23:02;18.60;;;14.75;;
52248;SDS011;38541;48.130;8.378;2022-08-19T08:25:47;20.37;;;15.67;;
52248;SDS011;38541;48.130;8.378;2022-08-19T08:28:18;18.73;;;15.25;;
52248;SDS011;38541;48.130;8.378;2022-08-19T08:30:45;18.73;;;14.60;;
52248;SDS011;38541;48.130;8.378;2022-08-19T08:33:22;18.17;;;15.13;;
52248;SDS011;38541;48.130;8.378;2022-08-19T08:36:06;16.20;;;13.68;;
52248;SDS011;38541;48.130;8.378;2022-08-19T08:38:34;19.30;;;15.57;;
52248;SDS011;38541;48.130;8.378;2022-08-19T08:43:49;19.02;;;15.63;;
52248;SDS011;38541;48.130;8.378;2022-08-19T08:46:21;19.60;;;15.60;;
52248;SDS011;38541;48.130;8.378;2022-08-19T08:51:48;16.80;;;15.02;;
52248;SDS011;38541;48.130;8.378;2022-08-19T08:54:27;18.95;;;15.38;;
52248;SDS011;38541;48.130;8.378;2022-08-19T08:57:02;21.10;;;17.20;;
52248;SDS011;38541;48.130;8.378;2022-08-19T08:59:34;18.77;;;15.25;;
52248;SDS011;38541;48.130;8.378;2022-08-19T09:02:05;18.40;;;14.63;;
52248;SDS011;38541;48.130;8.378;2022-08-19T09:04:31;19.45;;;15.85;;
52248;SDS011;38541;48.130;8.378;2022-08-19T09:10:01;17.83;;;15.73;;
52248;SDS011;38541;48.130;8.378;2022-08-19T09:15:37;20.00;;;15.50;;
52248;SDS011;38541;48.130;8.378;2022-08-19T09:18:08;19.23;;;16.02;;
52248;SDS011;38541;48.130;8.378;2022-08-19T09:20:44;17.42;;;14.52;;
52248;SDS011;38541;48.130;8.378;2022-08-19T09:23:13;19.80;;;16.27;;
52248;SDS011;38541;48.130;8.378;2022-08-19T09:25:40;17.30;;;15.48;;
52248;SDS011;38541;48.130;8.378;2022-08-19T09:28:07;18.65;;;15.55;;
52248;SDS011;38541;48.130;8.378;2022-08-19T09:30:47;19.60;;;16.45;;
52248;SDS011;38541;48.130;8.378;2022-08-19T09:33:14;19.05;;;16.30;;
52248;SDS011;38541;48.130;8.378;2022-08-19T09:35:42;18.58;;;15.82;;
52248;SDS011;38541;48.130;8.378;2022-08-19T09:38:18;17.88;;;15.75;;
52248;SDS011;38541;48.130;8.378;2022-08-19T09:40:45;19.15;;;16.33;;
52248;SDS011;38541;48.130;8.378;2022-08-19T09:43:11;19.77;;;17.30;;
52248;SDS011;38541;48.130;8.378;2022-08-19T09:45:38;18.80;;;15.68;;
52248;SDS011;38541;48.130;8.378;2022-08-19T09:48:05;19.83;;;16.35;;
52248;SDS011;38541;48.130;8.378;2022-08-19T09:50:32;21.10;;;17.05;;
52248;SDS011;38541;48.130;8.378;2022-08-19T09:53:00;17.90;;;15.30;;
52248;SDS011;38541;48.130;8.378;2022-08-19T09:55:26;21.48;;;17.30;;
52248;SDS011;38541;48.130;8.378;2022-08-19T09:57:58;19.70;;;16.52;;
52248;SDS011;38541;48.130;8.378;2022-08-19T10:00:28;20.10;;;15.95;;
52248;SDS011;38541;48.130;8.378;2022-08-19T10:02:57;18.35;;;15.30;;
52248;SDS011;38541;48.130;8.378;2022-08-19T10:05:23;19.60;;;16.17;;
52248;SDS011;38541;48.130;8.378;2022-08-19T10:08:09;18.02;;;14.90;;
52248;SDS011;38541;48.130;8.378;2022-08-19T10:10:40;18.25;;;15.20;;
52248;SDS011;38541;48.130;8.378;2022-08-19T10:13:12;21.05;;;18.00;;
52248;SDS011;38541;48.130;8.378;2022-08-19T10:15:42;18.55;;;15.52;;
52248;SDS011;38541;48.130;8.378;2022-08-19T10:18:13;18.63;;;15.80;;
52248;SDS011;38541;48.130;8.378;2022-08-19T10:20:40;21.23;;;16.25;;
52248;SDS011;38541;48.130;8.378;2022-08-19T10:23:08;19.33;;;16.70;;
52248;SDS011;38541;48.130;8.378;2022-08-19T10:25:35;19.20;;;16.00;;
52248;SDS011;38541;48.130;8.378;2022-08-19T10:28:04;17.58;;;15.10;;
52248;SDS011;38541;48.130;8.378;2022-08-19T10:30:36;16.85;;;15.02;;
52248;SDS011;38541;48.130;8.378;2022-08-19T10:33:03;18.75;;;14.60;;
52248;SDS011;38541;48.130;8.378;2022-08-19T10:35:36;15.48;;;13.88;;
52248;SDS011;38541;48.130;8.378;2022-08-19T10:38:22;17.95;;;15.25;;
52248;SDS011;38541;48.130;8.378;2022-08-19T10:40:58;17.52;;;15.63;;
52248;SDS011;38541;48.130;8.378;2022-08-19T10:43:32;17.87;;;15.57;;
52248;SDS011;38541;48.130;8.378;2022-08-19T10:46:02;21.70;;;17.13;;
52248;SDS011;38541;48.130;8.378;2022-08-19T10:48:35;16.00;;;14.25;;
52248;SDS011;38541;48.130;8.378;2022-08-19T10:51:03;18.02;;;15.98;;
52248;SDS011;38541;48.130;8.378;2022-08-19T10:53:49;18.48;;;15.43;;
52248;SDS011;38541;48.130;8.378;2022-08-19T10:56:16;16.73;;;14.88;;
52248;SDS011;38541;48.130;8.378;2022-08-19T10:59:02;17.08;;;15.30;;
52248;SDS011;38541;48.130;8.378;2022-08-19T11:01:30;18.83;;;15.73;;
52248;SDS011;38541;48.130;8.378;2022-08-19T11:04:03;19.00;;;15.85;;
52248;SDS011;38541;48.130;8.378;2022-08-19T11:06:31;16.95;;;15.15;;
52248;SDS011;38541;48.130;8.378;2022-08-19T11:08:58;18.58;;;14.70;;
52248;SDS011;38541;48.130;8.378;2022-08-19T11:11:26;15.80;;;14.10;;
52248;SDS011;38541;48.130;8.378;2022-08-19T11:13:54;16.48;;;14.70;;
52248;SDS011;38541;48.130;8.378;2022-08-19T11:16:22;15.98;;;14.27;;
52248;SDS011;38541;48.130;8.378;2022-08-19T11:18:53;16.63;;;14.85;;
52248;SDS011;38541;48.130;8.378;2022-08-19T11:21:25;14.85;;;13.35;;
52248;SDS011;38541;48.130;8.378;2022-08-19T11:23:59;16.88;;;15.07;;
52248;SDS011;38541;48.130;8.378;2022-08-19T11:26:30;15.82;;;14.23;;
52248;SDS011;38541;48.130;8.378;2022-08-19T11:28:58;17.55;;;15.73;;
52248;SDS011;38541;48.130;8.378;2022-08-19T11:31:27;15.90;;;14.07;;
52248;SDS011;38541;48.130;8.378;2022-08-19T11:33:57;17.75;;;15.15;;
52248;SDS011;38541;48.130;8.378;2022-08-19T11:36:26;16.48;;;13.02;;
52248;SDS011;38541;48.130;8.378;2022-08-19T11:38:53;15.80;;;14.02;;
52248;SDS011;38541;48.130;8.378;2022-08-19T11:41:21;16.17;;;14.57;;
52248;SDS011;38541;48.130;8.378;2022-08-19T11:43:50;14.75;;;13.00;;
52248;SDS011;38541;48.130;8.378;2022-08-19T11:46:19;14.85;;;13.15;;
52248;SDS011;38541;48.130;8.378;2022-08-19T11:48:46;15.05;;;13.45;;
52248;SDS011;38541;48.130;8.378;2022-08-19T11:51:14;14.85;;;13.07;;
52248;SDS011;38541;48.130;8.378;2022-08-19T11:53:42;14.52;;;12.63;;
52248;SDS011;38541;48.130;8.378;2022-08-19T11:56:08;14.75;;;13.25;;
52248;SDS011;38541;48.130;8.378;2022-08-19T11:58:36;14.25;;;12.82;;
52248;SDS011;38541;48.130;8.378;2022-08-19T12:01:07;15.05;;;13.45;;
52248;SDS011;38541;48.130;8.378;2022-08-19T12:03:35;15.82;;;14.23;;
52248;SDS011;38541;48.130;8.378;2022-08-19T12:06:05;20.30;;;14.82;;
52248;SDS011;38541;48.130;8.378;2022-08-19T12:08:39;15.15;;;13.10;;
52248;SDS011;38541;48.130;8.378;2022-08-19T12:11:06;15.43;;;13.82;;
52248;SDS011;38541;48.130;8.378;2022-08-19T12:13:37;14.18;;;12.80;;
52248;SDS011;38541;48.130;8.378;2022-08-19T12:16:09;13.20;;;11.73;;
52248;SDS011;38541;48.130;8.378;2022-08-19T12:18:38;16.35;;;14.68;;
52248;SDS011;38541;48.130;8.378;2022-08-19T12:21:09;15.15;;;13.55;;
52248;SDS011;38541;48.130;8.378;2022-08-19T12:23:37;14.65;;;12.23;;
52248;SDS011;38541;48.130;8.378;2022-08-19T12:26:04;14.60;;;13.00;;
52248;SDS011;38541;48.130;8.378;2022-08-19T12:28:31;15.73;;;14.13;;
52248;SDS011;38541;48.130;8.378;2022-08-19T12:30:57;15.27;;;13.68;;
52248;SDS011;38541;48.130;8.378;2022-08-19T12:33:24;19.02;;;17.13;;
52248;SDS011;38541;48.130;8.378;2022-08-19T12:35:54;16.70;;;14.90;;
52248;SDS011;38541;48.130;8.378;2022-08-19T12:38:21;18.58;;;16.67;;
52248;SDS011;38541;48.130;8.378;2022-08-19T12:40:50;16.20;;;14.50;;
52248;SDS011;38541;48.130;8.378;2022-08-19T12:43:22;15.35;;;13.85;;
52248;SDS011;38541;48.130;8.378;2022-08-19T12:45:48;16.08;;;14.10;;
52248;SDS011;38541;48.130;8.378;2022-08-19T12:48:15;15.32;;;12.07;;
52248;SDS011;38541;48.130;8.378;2022-08-19T12:50:59;16.55;;;14.90;;
52248;SDS011;38541;48.130;8.378;2022-08-19T12:53:25;16.13;;;14.05;;
52248;SDS011;38541;48.130;8.378;2022-08-19T12:55:55;13.20;;;11.90;;
52248;SDS011;38541;48.130;8.378;2022-08-19T12:58:23;15.80;;;14.05;;
52248;SDS011;38541;48.130;8.378;2022-08-19T13:00:52;14.25;;;12.75;;
52248;SDS011;38541;48.130;8.378;2022-08-19T13:03:19;13.82;;;12.52;;
52248;SDS011;38541;48.130;8.378;2022-08-19T13:05:50;13.30;;;11.90;;
52248;SDS011;38541;48.130;8.378;2022-08-19T13:08:16;16.23;;;13.13;;
52248;SDS011;38541;48.130;8.378;2022-08-19T13:10:43;14.32;;;12.82;;
52248;SDS011;38541;48.130;8.378;2022-08-19T13:13:10;13.32;;;12.00;;
52248;SDS011;38541;48.130;8.378;2022-08-19T13:15:37;12.95;;;11.70;;
52248;SDS011;38541;48.130;8.378;2022-08-19T13:18:09;19.30;;;14.88;;
52248;SDS011;38541;48.130;8.378;2022-08-19T13:20:37;12.45;;;11.20;;
52248;SDS011;38541;48.130;8.378;2022-08-19T13:23:07;15.15;;;13.40;;
52248;SDS011;38541;48.130;8.378;2022-08-19T13:25:35;13.60;;;12.25;;
52248;SDS011;38541;48.130;8.378;2022-08-19T13:28:02;13.45;;;12.05;;
52248;SDS011;38541;48.130;8.378;2022-08-19T13:30:30;13.13;;;11.90;;
52248;SDS011;38541;48.130;8.378;2022-08-19T13:33:14;12.88;;;10.85;;
52248;SDS011;38541;48.130;8.378;2022-08-19T13:38:17;13.93;;;10.85;;
52248;SDS011;38541;48.130;8.378;2022-08-19T13:40:47;11.38;;;10.15;;
52248;SDS011;38541;48.130;8.378;2022-08-19T13:43:15;11.70;;;10.27;;
52248;SDS011;38541;48.130;8.378;2022-08-19T13:45:49;13.27;;;10.55;;
52248;SDS011;38541;48.130;8.378;2022-08-19T13:48:19;14.20;;;10.88;;
52248;SDS011;38541;48.130;8.378;2022-08-19T13:50:46;11.77;;;10.57;;
52248;SDS011;38541;48.130;8.378;2022-08-19T13:53:14;13.57;;;12.18;;
52248;SDS011;38541;48.130;8.378;2022-08-19T13:55:42;11.38;;;10.15;;
52248;SDS011;38541;48.130;8.378;2022-08-19T13:58:10;10.73;;;9.73;;
52248;SDS011;38541;48.130;8.378;2022-08-19T14:00:38;10.80;;;9.73;;
52248;SDS011;38541;48.130;8.378;2022-08-19T14:03:07;11.90;;;10.70;;
52248;SDS011;38541;48.130;8.378;2022-08-19T14:05:34;9.60;;;8.60;;
52248;SDS011;38541;48.130;8.378;2022-08-19T14:08:01;8.88;;;7.93;;
52248;SDS011;38541;48.130;8.378;2022-08-19T14:10:28;10.25;;;9.25;;
52248;SDS011;38541;48.130;8.378;2022-08-19T14:12:57;9.57;;;8.55;;
52248;SDS011;38541;48.130;8.378;2022-08-19T14:15:26;9.20;;;8.38;;
52248;SDS011;38541;48.130;8.378;2022-08-19T14:17:54;9.52;;;8.52;;
52248;SDS011;38541;48.130;8.378;2022-08-19T14:20:21;8.50;;;7.80;;
52248;SDS011;38541;48.130;8.378;2022-08-19T14:22:52;8.48;;;7.78;;
52248;SDS011;38541;48.130;8.378;2022-08-19T14:25:20;8.23;;;7.43;;
52248;SDS011;38541;48.130;8.378;2022-08-19T14:27:50;8.55;;;7.75;;
52248;SDS011;38541;48.130;8.378;2022-08-19T14:30:22;7.85;;;7.13;;
52248;SDS011;38541;48.130;8.378;2022-08-19T14:32:53;10.57;;;8.20;;
52248;SDS011;38541;48.130;8.378;2022-08-19T14:35:21;9.73;;;8.73;;
52248;SDS011;38541;48.130;8.378;2022-08-19T14:37:48;7.88;;;7.18;;
52248;SDS011;38541;48.130;8.378;2022-08-19T14:40:18;8.77;;;7.97;;
52248;SDS011;38541;48.130;8.378;2022-08-19T14:42:47;8.55;;;6.82;;
52248;SDS011;38541;48.130;8.378;2022-08-19T14:45:14;7.70;;;7.10;;
52248;SDS011;38541;48.130;8.378;2022-08-19T14:47:41;7.68;;;6.82;;
52248;SDS011;38541;48.130;8.378;2022-08-19T14:50:10;7.88;;;7.13;;
52248;SDS011;38541;48.130;8.378;2022-08-19T14:52:44;7.88;;;7.18;;
52248;SDS011;38541;48.130;8.378;2022-08-19T14:55:12;8.23;;;7.28;;
52248;SDS011;38541;48.130;8.378;2022-08-19T14:57:40;8.20;;;7.20;;
52248;SDS011;38541;48.130;8.378;2022-08-19T15:00:07;7.55;;;6.90;;
52248;SDS011;38541;48.130;8.378;2022-08-19T15:02:39;7.93;;;7.20;;
52248;SDS011;38541;48.130;8.378;2022-08-19T15:05:07;8.35;;;7.45;;
52248;SDS011;38541;48.130;8.378;2022-08-19T15:07:34;8.30;;;7.65;;
52248;SDS011;38541;48.130;8.378;2022-08-19T15:10:00;8.23;;;7.43;;